Time;durP1;ratioP1;P1;durP2;ratioP2;P2;SDS_P1;SDS_P2;PMS_P1;PMS_P2;Temp;Humidity;BMP_temperature;BMP_pressure;BME280_temperature;BME280_humidity;BME280_pressure;Samples;Min_cycle;Max_cycle;Signal;HPM_P1;HPM_P2
2022/09/04 00:01:34;;;;;;;9.50;9.10;;;18.90;53.80;;;;;;5043294;28;20414;-55
2022/09/04 00:04:13;;;;;;;8.40;8.10;;;18.90;54.20;;;;;;5054176;28;20422;-50
2022/09/04 00:07:11;;;;;;;7.97;7.57;;;19.00;54.40;;;;;;5054113;28;20452;-44
2022/09/04 00:09:51;;;;;;;9.17;8.37;;;19.20;54.00;;;;;;5049588;28;20547;-56
2022/09/04 00:12:22;;;;;;;8.87;8.53;;;19.30;53.10;;;;;;5053786;28;20413;-53
2022/09/04 00:14:52;;;;;;;9.23;8.87;;;19.40;52.40;;;;;;5053731;28;20418;-56
2022/09/04 00:17:28;;;;;;;9.30;9.00;;;19.40;52.40;;;;;;5053186;28;20418;-50
2022/09/04 00:20:11;;;;;;;9.40;9.10;;;19.30;50.40;;;;;;5053643;28;20775;-51
2022/09/04 00:22:54;;;;;;;8.90;8.60;;;19.10;52.40;;;;;;5053788;28;20508;-54
2022/09/04 00:25:44;;;;;;;8.70;8.30;;;19.00;52.90;;;;;;5053501;28;20818;-54
2022/09/04 00:28:28;;;;;;;8.67;8.33;;;19.00;53.20;;;;;;5053456;28;20824;-56
2022/09/04 00:31:11;;;;;;;8.73;8.43;;;19.20;53.30;;;;;;5053106;28;20496;-56
2022/09/04 00:34:12;;;;;;;8.63;8.13;;;19.30;52.80;;;;;;5053760;28;20409;-54
2022/09/04 00:36:43;;;;;;;9.83;9.33;;;19.40;52.30;;;;;;5053864;28;20413;-53
2022/09/04 00:39:30;;;;;;;9.37;8.97;;;19.50;51.80;;;;;;5053824;28;20410;-52
2022/09/04 00:42:27;;;;;;;9.30;8.90;;;19.50;51.20;;;;;;5039528;28;20524;-54
2022/09/04 00:45:24;;;;;;;9.83;9.33;;;19.60;51.20;;;;;;5053700;28;20413;-44
2022/09/04 00:48:21;;;;;;;9.10;8.80;;;19.60;50.70;;;;;;5071970;28;20404;-44
2022/09/04 00:51:22;;;;;;;9.00;8.70;;;19.60;50.10;;;;;;5042169;28;20457;-47
2022/09/04 00:54:03;;;;;;;9.90;9.40;;;19.70;50.20;;;;;;5029089;28;20428;-45
2022/09/04 00:56:51;;;;;;;9.60;9.20;;;19.70;50.10;;;;;;5052948;28;20409;-51
2022/09/04 00:59:44;;;;;;;10.13;9.73;;;19.70;50.10;;;;;;5052899;28;20762;-46
2022/09/04 01:02:38;;;;;;;10.83;10.23;;;19.70;50.10;;;;;;5053074;28;20413;-43
2022/09/04 01:05:15;;;;;;;10.50;10.00;;;19.70;50.20;;;;;;5053200;28;20413;-43
2022/09/04 01:08:09;;;;;;;11.33;10.63;;;19.70;50.20;;;;;;5053313;28;20500;-45
2022/09/04 01:10:47;;;;;;;10.37;10.00;;;19.70;49.90;;;;;;5053042;28;20468;-45
2022/09/04 01:13:42;;;;;;;11.53;10.93;;;19.60;50.00;;;;;;5052842;28;20418;-44
2022/09/04 01:16:24;;;;;;;10.53;9.93;;;19.60;50.00;;;;;;5052181;28;20429;-46
2022/09/04 01:19:01;;;;;;;10.27;9.77;;;19.60;50.00;;;;;;5053249;28;20793;-42
2022/09/04 01:21:49;;;;;;;11.20;10.60;;;19.60;50.00;;;;;;5074337;28;20405;-43
2022/09/04 01:24:37;;;;;;;10.67;10.10;;;19.60;50.00;;;;;;5056459;28;20449;-43
2022/09/04 01:27:12;;;;;;;12.30;11.50;;;19.50;50.90;;;;;;5056632;28;20433;-44
2022/09/04 01:29:48;;;;;;;11.13;10.63;;;19.40;49.90;;;;;;5056191;28;20952;-44
2022/09/04 01:32:50;;;;;;;11.37;10.60;;;19.10;51.40;;;;;;5056515;28;20453;-50
2022/09/04 01:35:35;;;;;;;10.30;9.90;;;19.10;52.20;;;;;;5056309;28;20516;-55
2022/09/04 01:38:00;;;;;;;10.37;9.97;;;19.20;51.70;;;;;;5056239;28;20449;-54
2022/09/04 01:40:39;;;;;;;9.33;9.03;;;19.30;51.10;;;;;;5056131;28;20857;-55
2022/09/04 01:43:10;;;;;;;10.60;10.20;;;19.30;50.40;;;;;;5056531;28;20225;-52
2022/09/04 01:45:42;;;;;;;10.97;10.30;;;19.00;50.90;;;;;;5056035;28;20990;-55
2022/09/04 01:48:15;;;;;;;12.07;11.47;;;18.90;51.30;;;;;;5055838;28;20425;-43
2022/09/04 01:50:44;;;;;;;11.10;10.60;;;18.90;52.00;;;;;;5056157;28;20964;-44
2022/09/04 01:53:27;;;;;;;10.80;10.30;;;18.90;51.50;;;;;;5055483;28;20428;-49
2022/09/04 01:56:15;;;;;;;10.20;9.80;;;18.80;52.20;;;;;;5055333;28;20425;-42
2022/09/04 01:58:49;;;;;;;10.10;9.70;;;18.80;52.20;;;;;;5055374;28;20751;-55
2022/09/04 02:01:38;;;;;;;10.10;9.60;;;18.90;52.30;;;;;;5054937;28;20417;-54
2022/09/04 02:04:17;;;;;;;11.20;10.60;;;19.00;51.70;;;;;;5055086;28;20929;-56
2022/09/04 02:07:04;;;;;;;9.83;9.50;;;19.10;50.90;;;;;;5055123;28;20917;-51
2022/09/04 02:09:53;;;;;;;10.70;10.30;;;19.10;50.60;;;;;;5054730;28;20405;-45
2022/09/04 02:12:49;;;;;;;10.70;10.30;;;19.20;49.70;;;;;;5054459;28;20422;-44
2022/09/04 02:15:54;;;;;;;10.73;10.33;;;19.20;49.70;;;;;;5055182;28;20409;-43
2022/09/04 02:18:32;;;;;;;10.93;10.47;;;19.30;48.90;;;;;;5054342;28;20420;-46
2022/09/04 02:21:08;;;;;;;11.20;10.80;;;19.30;48.90;;;;;;5054201;28;20405;-44
2022/09/04 02:23:44;;;;;;;11.50;11.00;;;19.30;48.70;;;;;;5054503;28;20405;-44
2022/09/04 02:26:19;;;;;;;11.03;10.63;;;19.30;48.30;;;;;;5054442;28;20779;-48
2022/09/04 02:29:07;;;;;;;11.60;11.07;;;19.40;48.60;;;;;;5054782;28;20413;-44
2022/09/04 02:31:47;;;;;;;10.60;10.20;;;19.30;48.30;;;;;;5054183;28;20453;-44
2022/09/04 02:34:45;;;;;;;10.70;10.30;;;19.30;48.30;;;;;;5053937;28;20429;-43
2022/09/04 02:37:15;;;;;;;10.80;10.40;;;19.40;48.30;;;;;;5053883;28;20467;-50
2022/09/04 02:39:44;;;;;;;11.37;10.67;;;19.40;48.40;;;;;;5053478;28;20441;-51
2022/09/04 02:42:38;;;;;;;11.17;10.67;;;19.30;48.40;;;;;;5054385;28;20914;-49
2022/09/04 02:45:22;;;;;;;11.10;10.40;;;19.40;48.70;;;;;;5053456;28;20501;-50
2022/09/04 02:48:12;;;;;;;10.67;10.27;;;19.40;48.90;;;;;;5053754;28;20409;-48
2022/09/04 02:50:55;;;;;;;11.47;10.93;;;19.30;48.70;;;;;;5053570;28;20553;-49
2022/09/04 02:53:43;;;;;;;11.37;10.87;;;19.30;48.80;;;;;;5054226;28;20412;-51
2022/09/04 02:56:42;;;;;;;11.27;10.70;;;19.40;48.90;;;;;;5070933;28;20404;-51
2022/09/04 02:59:47;;;;;;;11.47;10.93;;;19.40;48.70;;;;;;5053417;28;20496;-43
2022/09/04 03:02:26;;;;;;;11.67;11.17;;;19.30;48.90;;;;;;5053285;28;20412;-43
2022/09/04 03:05:00;;;;;;;11.43;11.00;;;19.30;48.50;;;;;;5052963;28;20482;-45
2022/09/04 03:08:09;;;;;;;11.00;10.57;;;19.30;48.70;;;;;;5053386;28;20409;-49
2022/09/04 03:10:47;;;;;;;10.93;10.53;;;19.30;48.10;;;;;;5052638;28;20453;-46
2022/09/04 03:13:28;;;;;;;11.47;10.97;;;19.30;47.80;;;;;;5053056;28;20547;-48
2022/09/04 03:15:56;;;;;;;11.20;10.80;;;19.30;47.70;;;;;;5052706;28;20413;-44
2022/09/04 03:18:29;;;;;;;12.23;11.63;;;19.30;47.70;;;;;;5052791;28;20416;-53
2022/09/04 03:21:16;;;;;;;11.67;11.17;;;19.30;47.60;;;;;;5052695;28;20425;-53
2022/09/04 03:23:54;;;;;;;12.10;11.60;;;19.30;47.80;;;;;;5053411;28;20414;-45
2022/09/04 03:26:28;;;;;;;10.93;10.53;;;19.30;47.00;;;;;;5052981;28;20784;-47
2022/09/04 03:29:08;;;;;;;11.20;10.80;;;19.20;47.10;;;;;;5053568;28;20437;-45
2022/09/04 03:31:57;;;;;;;11.67;11.17;;;19.20;47.40;;;;;;5052129;28;21026;-47
2022/09/04 03:34:41;;;;;;;11.73;10.90;;;19.20;47.40;;;;;;5053403;28;20438;-47
2022/09/04 03:37:27;;;;;;;12.03;11.50;;;19.20;47.70;;;;;;5070962;28;20488;-46
2022/09/04 03:40:16;;;;;;;11.50;10.90;;;19.20;47.50;;;;;;5053180;28;20417;-46
2022/09/04 03:42:47;;;;;;;10.67;10.27;;;19.20;47.80;;;;;;5040130;28;20479;-43
2022/09/04 03:45:30;;;;;;;12.40;11.80;;;19.20;47.90;;;;;;5052802;28;20422;-42
2022/09/04 03:48:07;;;;;;;12.10;11.63;;;19.20;47.80;;;;;;5052997;28;20422;-43
2022/09/04 03:51:02;;;;;;;10.97;10.47;;;19.10;47.60;;;;;;5052616;28;20449;-46
2022/09/04 03:53:37;;;;;;;11.30;10.73;;;19.10;48.00;;;;;;5053318;28;20417;-44
2022/09/04 03:56:15;;;;;;;11.27;10.87;;;19.00;48.10;;;;;;5052223;28;20491;-48
2022/09/04 03:58:50;;;;;;;11.20;10.80;;;19.10;48.30;;;;;;5052496;28;20822;-53
2022/09/04 04:01:16;;;;;;;11.37;10.83;;;19.10;48.10;;;;;;5051749;28;20887;-43
2022/09/04 04:04:41;;;;;;;11.77;11.27;;;19.10;47.60;;;;;;5052742;28;20974;-43
2022/09/04 04:07:31;;;;;;;11.87;11.37;;;19.10;47.50;;;;;;5052176;28;20450;-46
2022/09/04 04:10:16;;;;;;;11.70;11.30;;;19.10;47.00;;;;;;5051604;28;20522;-44
2022/09/04 04:12:48;;;;;;;11.60;11.20;;;19.10;46.80;;;;;;5051551;28;20728;-43
2022/09/04 04:15:16;;;;;;;12.00;11.40;;;19.10;46.70;;;;;;5051590;28;20974;-44
2022/09/04 04:18:13;;;;;;;12.03;11.53;;;19.10;46.70;;;;;;5051926;28;20429;-44
2022/09/04 04:20:46;;;;;;;11.90;11.40;;;19.10;46.70;;;;;;5052018;28;20456;-46
2022/09/04 04:23:35;;;;;;;12.17;11.67;;;19.10;46.70;;;;;;5052315;28;20559;-47
2022/09/04 04:26:20;;;;;;;11.30;10.90;;;19.10;46.60;;;;;;5051566;28;20447;-45
2022/09/04 04:28:58;;;;;;;11.30;10.90;;;19.00;46.30;;;;;;5070375;28;20401;-53
2022/09/04 04:31:23;;;;;;;12.17;11.47;;;19.00;46.50;;;;;;5051198;28;20471;-50
2022/09/04 04:34:15;;;;;;;12.17;11.67;;;19.00;46.30;;;;;;5051999;28;20855;-55
2022/09/04 04:37:01;;;;;;;12.00;11.60;;;19.00;46.20;;;;;;5051891;28;20171;-53
2022/09/04 04:39:52;;;;;;;11.87;11.47;;;19.00;46.30;;;;;;5052369;28;20445;-51
2022/09/04 04:42:27;;;;;;;12.07;11.57;;;19.00;46.20;;;;;;5053315;28;20454;-45
2022/09/04 04:47:48;;;;;;;12.40;11.90;;;18.90;46.10;;;;;;5071093;28;20455;-43
2022/09/04 04:50:41;;;;;;;12.27;11.67;;;18.90;46.30;;;;;;5052293;28;20537;-42
2022/09/04 04:53:31;;;;;;;12.13;11.70;;;18.90;46.70;;;;;;5051637;28;20818;-51
2022/09/04 04:56:32;;;;;;;12.40;11.80;;;18.90;46.50;;;;;;5055859;28;20843;-44
2022/09/04 04:59:12;;;;;;;12.40;11.90;;;18.90;46.50;;;;;;5056100;28;20781;-43
2022/09/04 05:01:47;;;;;;;13.17;12.57;;;18.90;46.70;;;;;;5055186;28;20409;-44
2022/09/04 05:04:24;;;;;;;12.00;11.50;;;18.90;46.50;;;;;;5055060;28;20450;-43
2022/09/04 05:07:04;;;;;;;12.37;11.97;;;19.00;46.60;;;;;;5054818;28;20439;-43
2022/09/04 05:09:59;;;;;;;12.00;11.57;;;18.90;46.50;;;;;;5055169;28;20413;-53
2022/09/04 05:12:54;;;;;;;12.07;11.57;;;18.90;47.00;;;;;;5054440;28;20416;-50
2022/09/04 05:15:23;;;;;;;11.80;11.30;;;18.80;47.00;;;;;;5053192;28;20425;-52
2022/09/04 05:17:59;;;;;;;11.63;11.23;;;18.80;47.20;;;;;;5052609;28;20413;-52
2022/09/04 05:21:02;;;;;;;11.70;11.30;;;18.80;47.20;;;;;;5052214;28;20413;-53
2022/09/04 05:23:55;;;;;;;12.57;12.07;;;18.90;47.10;;;;;;5063106;28;20840;-54
2022/09/04 05:26:32;;;;;;;12.40;11.83;;;18.90;46.60;;;;;;5054698;28;20415;-55
2022/09/04 05:29:12;;;;;;;12.70;12.13;;;18.90;46.90;;;;;;5054417;28;20418;-56
2022/09/04 05:31:41;;;;;;;12.47;11.97;;;18.90;47.00;;;;;;5054255;28;20472;-52
2022/09/04 05:34:13;;;;;;;11.90;11.40;;;19.00;47.10;;;;;;5055315;28;20401;-55
2022/09/04 05:36:56;;;;;;;12.27;11.77;;;18.90;46.80;;;;;;5055253;28;20409;-51
2022/09/04 05:39:21;;;;;;;12.30;11.80;;;18.90;46.70;;;;;;5053773;28;20420;-52
2022/09/04 05:42:13;;;;;;;12.67;12.07;;;18.90;46.80;;;;;;5050654;28;20423;-51
2022/09/04 05:45:10;;;;;;;12.60;12.00;;;19.00;46.80;;;;;;5035614;28;20172;-55
2022/09/04 05:47:57;;;;;;;12.60;12.10;;;19.00;47.10;;;;;;5034808;28;20410;-54
2022/09/04 05:50:28;;;;;;;11.90;11.50;;;18.80;46.30;;;;;;5034661;28;20465;-42
2022/09/04 05:53:03;;;;;;;13.00;12.30;;;18.80;48.00;;;;;;5034278;28;20410;-46
2022/09/04 05:55:47;;;;;;;11.63;11.13;;;18.80;47.60;;;;;;5034906;28;20913;-47
2022/09/04 05:58:34;;;;;;;11.77;11.23;;;18.80;47.60;;;;;;5034303;28;20731;-43
2022/09/04 06:01:24;;;;;;;12.00;11.50;;;18.80;47.40;;;;;;5033997;28;20502;-43
2022/09/04 06:04:09;;;;;;;12.10;11.60;;;18.90;47.20;;;;;;5033870;28;20433;-41
2022/09/04 06:06:48;;;;;;;12.03;11.53;;;18.90;47.50;;;;;;5033258;28;20919;-45
2022/09/04 06:09:13;;;;;;;12.13;11.63;;;19.00;47.60;;;;;;5034083;28;20477;-43
2022/09/04 06:11:48;;;;;;;12.90;12.40;;;19.00;47.10;;;;;;5033401;28;20466;-41
2022/09/04 06:14:26;;;;;;;13.57;12.87;;;19.00;46.80;;;;;;5033366;28;20179;-46
2022/09/04 06:17:20;;;;;;;13.00;12.47;;;19.00;46.90;;;;;;5033924;28;20414;-48
2022/09/04 06:19:57;;;;;;;12.03;11.53;;;19.10;46.90;;;;;;5033670;28;20438;-45
2022/09/04 06:22:45;;;;;;;12.50;12.00;;;19.10;47.10;;;;;;5033261;28;20421;-44
2022/09/04 06:25:23;;;;;;;12.83;12.33;;;19.00;47.10;;;;;;5051187;28;20406;-41
2022/09/04 06:28:02;;;;;;;12.70;12.10;;;19.00;47.90;;;;;;5033064;28;20413;-42
2022/09/04 06:30:41;;;;;;;12.63;12.03;;;19.10;47.80;;;;;;5033902;28;20813;-41
2022/09/04 06:33:10;;;;;;;12.67;12.07;;;19.10;48.20;;;;;;5033004;28;20413;-45
2022/09/04 06:36:03;;;;;;;13.23;12.63;;;19.10;48.40;;;;;;5032703;28;20434;-49
2022/09/04 06:39:07;;;;;;;12.07;11.57;;;19.10;48.60;;;;;;5049194;28;20780;-49
2022/09/04 06:41:47;;;;;;;11.57;11.03;;;19.20;48.50;;;;;;5051856;28;20422;-52
2022/09/04 06:44:33;;;;;;;11.57;11.13;;;19.20;48.40;;;;;;5052482;28;20706;-49
2022/09/04 06:47:26;;;;;;;13.20;12.40;;;19.30;48.20;;;;;;5050658;28;20993;-43
2022/09/04 06:50:07;;;;;;;12.13;11.63;;;19.30;48.30;;;;;;5050279;28;20458;-41
2022/09/04 06:52:51;;;;;;;12.07;11.47;;;19.30;48.40;;;;;;5050514;28;20415;-44
2022/09/04 06:55:51;;;;;;;12.30;11.70;;;19.30;47.20;;;;;;5053084;28;20408;-41
2022/09/04 06:58:55;;;;;;;11.83;11.23;;;19.20;48.20;;;;;;5051984;28;20406;-41
2022/09/04 07:01:42;;;;;;;12.07;11.67;;;19.20;48.20;;;;;;5053113;28;20449;-42
2022/09/04 07:04:14;;;;;;;11.50;11.00;;;19.30;48.40;;;;;;5054148;28;20776;-42
2022/09/04 07:06:54;;;;;;;11.80;11.30;;;19.40;48.20;;;;;;5054696;28;20453;-42
2022/09/04 07:09:37;;;;;;;12.73;12.13;;;19.40;48.20;;;;;;5055039;28;20417;-41
2022/09/04 07:12:05;;;;;;;12.20;11.70;;;19.30;48.00;;;;;;5055018;28;20965;-42
2022/09/04 07:14:37;;;;;;;11.97;11.47;;;19.40;48.80;;;;;;5054888;28;20410;-43
2022/09/04 07:17:09;;;;;;;12.00;11.40;;;19.40;47.80;;;;;;5054372;28;20746;-41
2022/09/04 07:19:52;;;;;;;12.10;11.50;;;19.30;48.10;;;;;;5054650;28;20421;-42
2022/09/04 07:22:50;;;;;;;12.00;11.50;;;19.40;48.80;;;;;;5054557;28;20409;-44
2022/09/04 07:25:25;;;;;;;11.80;11.30;;;19.40;46.90;;;;;;5049485;28;20895;-51
2022/09/04 07:28:14;;;;;;;12.07;11.47;;;19.40;47.10;;;;;;5053401;28;20416;-54
2022/09/04 07:31:14;;;;;;;11.87;11.37;;;19.50;47.40;;;;;;5048234;28;20454;-42
2022/09/04 07:33:52;;;;;;;12.23;11.40;;;19.60;47.60;;;;;;5037507;28;20421;-42
2022/09/04 07:36:31;;;;;;;12.10;11.50;;;19.70;47.10;;;;;;5053048;28;20862;-44
2022/09/04 07:39:42;;;;;;;12.83;12.07;;;19.70;46.80;;;;;;5053098;28;20406;-48
2022/09/04 07:42:27;;;;;;;11.57;11.10;;;19.70;47.00;;;;;;5047319;28;20409;-47
2022/09/04 07:45:01;;;;;;;12.00;11.50;;;19.80;47.40;;;;;;5053230;28;20409;-45
2022/09/04 07:47:39;;;;;;;12.07;11.57;;;19.90;47.60;;;;;;5069461;28;20413;-44
2022/09/04 07:50:28;;;;;;;11.40;11.00;;;19.90;47.40;;;;;;5051024;28;20538;-44
2022/09/04 07:53:14;;;;;;;11.40;10.80;;;19.90;47.60;;;;;;5054038;28;20406;-47
2022/09/04 07:55:42;;;;;;;13.03;12.37;;;19.90;46.30;;;;;;5052130;28;20765;-43
2022/09/04 07:58:11;;;;;;;11.57;11.17;;;20.00;46.20;;;;;;5053751;28;20877;-44
2022/09/04 08:01:05;;;;;;;11.70;11.20;;;20.00;46.90;;;;;;5053613;28;20991;-43
2022/09/04 08:03:47;;;;;;;12.40;11.70;;;20.10;46.20;;;;;;5053360;28;20420;-41
2022/09/04 08:06:44;;;;;;;11.50;11.00;;;20.10;45.90;;;;;;5053962;28;20780;-43
2022/09/04 08:09:34;;;;;;;11.97;11.47;;;20.20;45.70;;;;;;5053519;28;20425;-44
2022/09/04 08:12:27;;;;;;;11.87;11.27;;;20.20;45.60;;;;;;5051754;28;20406;-42
2022/09/04 08:14:54;;;;;;;11.40;11.00;;;20.30;45.80;;;;;;5048251;28;20410;-41
2022/09/04 08:17:42;;;;;;;11.93;11.47;;;20.30;44.70;;;;;;5049579;28;20429;-45
2022/09/04 08:20:25;;;;;;;11.60;11.10;;;20.40;45.00;;;;;;5060383;28;20464;-52
2022/09/04 08:23:19;;;;;;;12.20;11.70;;;20.50;45.20;;;;;;5053894;28;20417;-52
2022/09/04 08:25:59;;;;;;;11.90;11.20;;;20.60;44.50;;;;;;5053407;28;20441;-50
2022/09/04 08:29:07;;;;;;;11.37;10.93;;;20.60;44.00;;;;;;5053274;28;20899;-43
2022/09/04 08:31:41;;;;;;;11.20;10.70;;;20.70;43.60;;;;;;5010304;28;20990;-42
2022/09/04 08:34:34;;;;;;;11.60;11.10;;;20.80;43.70;;;;;;5033051;28;20922;-42
2022/09/04 08:37:25;;;;;;;11.90;11.40;;;21.00;42.90;;;;;;5033483;28;20418;-42
2022/09/04 08:40:10;;;;;;;12.03;11.53;;;21.10;42.70;;;;;;5032811;28;20417;-42
2022/09/04 08:43:02;;;;;;;11.70;11.10;;;21.10;42.00;;;;;;5048261;28;20421;-47
2022/09/04 08:46:02;;;;;;;11.80;11.37;;;21.30;42.20;;;;;;5050495;28;20417;-52
2022/09/04 08:49:00;;;;;;;11.50;11.00;;;21.40;41.50;;;;;;5053326;28;20445;-52
2022/09/04 08:51:55;;;;;;;11.10;10.70;;;21.50;41.60;;;;;;5052628;28;20465;-51
2022/09/04 08:54:56;;;;;;;11.83;11.33;;;21.60;40.90;;;;;;5067941;28;20520;-53
2022/09/04 08:57:31;;;;;;;11.33;10.83;;;21.60;40.80;;;;;;5053090;28;21039;-52
2022/09/04 09:00:07;;;;;;;11.50;11.10;;;21.60;40.80;;;;;;5053378;28;21063;-53
2022/09/04 09:02:57;;;;;;;12.30;11.70;;;21.70;39.20;;;;;;5050643;28;20433;-51
2022/09/04 09:05:45;;;;;;;12.97;12.30;;;21.70;39.10;;;;;;5052648;28;20949;-49
2022/09/04 09:08:55;;;;;;;12.70;12.20;;;21.70;39.40;;;;;;5048216;28;20476;-49
2022/09/04 09:11:58;;;;;;;12.80;12.30;;;21.80;39.30;;;;;;5034909;28;20453;-58
2022/09/04 09:14:43;;;;;;;13.20;12.70;;;21.90;39.30;;;;;;5051442;28;20425;-48
2022/09/04 09:17:29;;;;;;;12.20;11.70;;;22.00;36.90;;;;;;5052847;28;20417;-50
2022/09/04 09:20:08;;;;;;;13.57;12.97;;;22.00;36.90;;;;;;5052856;28;20417;-41
2022/09/04 09:22:48;;;;;;;12.73;12.23;;;21.90;36.60;;;;;;5053206;28;20866;-43
2022/09/04 09:25:26;;;;;;;12.47;12.07;;;21.90;36.80;;;;;;5052909;28;21011;-43
2022/09/04 09:28:39;;;;;;;12.63;12.23;;;21.80;37.40;;;;;;5052754;28;20882;-46
2022/09/04 09:31:52;;;;;;;12.87;12.37;;;21.80;37.20;;;;;;5051887;28;20453;-51
2022/09/04 09:34:37;;;;;;;12.50;12.10;;;21.70;36.90;;;;;;4972929;28;20446;-49
2022/09/04 09:37:43;;;;;;;12.73;12.33;;;21.70;36.90;;;;;;4972517;28;20435;-43
2022/09/04 09:40:46;;;;;;;12.70;12.20;;;21.90;38.10;;;;;;5034440;28;20803;-43
2022/09/04 09:43:33;;;;;;;13.40;12.90;;;22.20;36.50;;;;;;5056499;28;20478;-46
2022/09/04 09:46:17;;;;;;;12.00;11.60;;;22.50;35.90;;;;;;5056683;28;20413;-46
2022/09/04 09:49:08;;;;;;;12.60;12.20;;;22.80;32.90;;;;;;5056584;28;20425;-42
2022/09/04 09:52:07;;;;;;;11.73;11.33;;;23.00;31.70;;;;;;5056247;28;20464;-45
2022/09/04 09:54:54;;;;;;;11.40;11.00;;;23.30;30.90;;;;;;5055827;28;20421;-47
2022/09/04 09:57:57;;;;;;;11.93;11.53;;;23.50;30.00;;;;;;5056340;28;20410;-45
2022/09/04 10:00:26;;;;;;;11.60;11.20;;;23.70;30.10;;;;;;5055214;28;20417;-50
2022/09/04 10:03:00;;;;;;;12.63;12.13;;;23.80;29.90;;;;;;5052378;28;20430;-44
2022/09/04 10:06:07;;;;;;;13.00;12.60;;;23.90;29.10;;;;;;5036228;28;20856;-52
2022/09/04 10:08:42;;;;;;;12.53;12.13;;;24.10;28.60;;;;;;5036095;28;20511;-43
2022/09/04 10:11:32;;;;;;;12.43;12.03;;;24.20;27.50;;;;;;5035998;28;20465;-45
2022/09/04 10:14:17;;;;;;;11.90;11.50;;;24.10;27.00;;;;;;5036316;28;20421;-47
2022/09/04 10:16:45;;;;;;;13.30;12.80;;;23.90;26.60;;;;;;5035726;28;20421;-43
2022/09/04 10:19:23;;;;;;;12.67;12.27;;;23.70;26.20;;;;;;5036062;28;20494;-44
2022/09/04 10:22:10;;;;;;;13.37;12.80;;;23.60;26.50;;;;;;5035816;28;20427;-43
2022/09/04 10:25:13;;;;;;;11.90;11.50;;;23.40;26.50;;;;;;5035653;28;20454;-45
2022/09/04 10:28:17;;;;;;;11.77;11.47;;;23.40;27.50;;;;;;5035664;28;20422;-43
2022/09/04 10:30:54;;;;;;;12.17;11.77;;;23.50;27.00;;;;;;5035216;28;20804;-41
2022/09/04 10:33:25;;;;;;;12.70;12.27;;;23.60;26.10;;;;;;5039482;28;20500;-45
2022/09/04 10:36:26;;;;;;;12.20;11.80;;;23.70;26.50;;;;;;5055025;28;20465;-47
2022/09/04 10:42:40;;;;;;;11.87;11.47;;;23.90;26.90;;;;;;5072846;28;20481;-47
2022/09/04 10:45:23;;;;;;;11.63;11.30;;;23.80;26.90;;;;;;5019143;28;20466;-42
2022/09/04 10:48:27;;;;;;;12.60;12.10;;;23.80;26.70;;;;;;5055340;28;20780;-43
2022/09/04 10:50:55;;;;;;;11.60;11.30;;;23.70;25.10;;;;;;5055136;28;20464;-42
2022/09/04 10:53:52;;;;;;;11.40;11.00;;;23.60;24.10;;;;;;5053585;28;20421;-42
2022/09/04 10:56:28;;;;;;;11.20;10.90;;;23.50;23.70;;;;;;5055428;28;20405;-42
2022/09/04 10:59:02;;;;;;;12.20;11.80;;;23.50;24.10;;;;;;5054968;28;20425;-41
2022/09/04 11:02:06;;;;;;;11.47;10.93;;;23.50;24.30;;;;;;5054729;28;20417;-50
2022/09/04 11:05:07;;;;;;;15.00;14.13;;;23.60;24.60;;;;;;5041461;28;20425;-52
2022/09/04 11:08:11;;;;;;;11.50;11.00;;;23.70;24.20;;;;;;5071708;28;20417;-42
2022/09/04 11:10:46;;;;;;;11.37;10.97;;;23.90;24.30;;;;;;5054327;28;20822;-43
2022/09/04 11:13:35;;;;;;;11.90;11.50;;;24.00;23.40;;;;;;5054910;28;20448;-44
2022/09/04 11:16:37;;;;;;;11.97;11.37;;;24.10;22.80;;;;;;5039443;28;20522;-46
2022/09/04 11:19:42;;;;;;;11.10;10.70;;;24.30;22.70;;;;;;5055170;28;20463;-40
2022/09/04 11:22:39;;;;;;;10.43;10.10;;;24.40;22.40;;;;;;5054986;28;20418;-48
2022/09/04 11:25:38;;;;;;;10.80;10.50;;;24.50;21.80;;;;;;5054986;28;20410;-54
2022/09/04 11:28:18;;;;;;;11.37;10.87;;;24.60;21.90;;;;;;5054843;28;20405;-47
2022/09/04 11:30:53;;;;;;;11.30;10.90;;;24.50;21.10;;;;;;5050012;28;20491;-50
2022/09/04 11:33:32;;;;;;;10.93;10.53;;;24.40;20.90;;;;;;5034671;28;20910;-52
2022/09/04 11:36:06;;;;;;;10.47;10.07;;;24.30;21.40;;;;;;5034380;28;20445;-51
2022/09/04 11:39:04;;;;;;;10.93;10.47;;;24.20;20.80;;;;;;5034125;28;20449;-47
2022/09/04 11:41:51;;;;;;;10.73;10.33;;;24.10;21.00;;;;;;5003252;28;20418;-48
2022/09/04 11:44:35;;;;;;;11.43;11.03;;;24.10;21.10;;;;;;5052720;28;20424;-52
2022/09/04 11:47:20;;;;;;;11.63;11.23;;;24.00;20.60;;;;;;5053141;28;20910;-52
2022/09/04 11:50:07;;;;;;;11.43;10.90;;;23.90;20.60;;;;;;5051724;28;20457;-48
2022/09/04 11:52:41;;;;;;;11.37;10.87;;;23.80;21.00;;;;;;5053808;28;20414;-52
2022/09/04 11:55:44;;;;;;;11.47;11.07;;;23.70;21.30;;;;;;5054277;28;20414;-52
2022/09/04 11:58:52;;;;;;;11.00;10.70;;;23.70;21.10;;;;;;5053987;28;20440;-52
2022/09/04 12:01:29;;;;;;;11.10;10.23;;;23.60;21.10;;;;;;5053760;28;20951;-52
2022/09/04 12:04:13;;;;;;;11.37;10.70;;;23.60;21.20;;;;;;5053660;28;20819;-52
2022/09/04 12:06:58;;;;;;;11.03;10.63;;;23.50;22.10;;;;;;5055503;28;20498;-51
2022/09/04 12:09:42;;;;;;;11.00;10.60;;;23.50;21.90;;;;;;5051005;28;20411;-51
2022/09/04 12:12:32;;;;;;;11.67;11.27;;;23.60;21.50;;;;;;5052922;28;20770;-52
2022/09/04 12:15:34;;;;;;;11.67;11.17;;;23.50;22.40;;;;;;5047223;28;20402;-44
2022/09/04 12:18:14;;;;;;;10.70;10.30;;;23.50;23.10;;;;;;5065943;28;20480;-45
2022/09/04 12:20:58;;;;;;;11.93;11.43;;;23.50;22.50;;;;;;5046741;28;20417;-44
2022/09/04 12:23:48;;;;;;;11.67;11.17;;;23.60;22.80;;;;;;5049312;28;20414;-48
2022/09/04 12:26:25;;;;;;;10.70;10.33;;;23.60;22.60;;;;;;5051025;28;20421;-43
2022/09/04 12:29:04;;;;;;;11.70;10.90;;;23.60;22.00;;;;;;5051144;28;20845;-45
2022/09/04 12:32:07;;;;;;;11.70;11.20;;;23.70;21.80;;;;;;5052224;28;20835;-51
2022/09/04 12:34:53;;;;;;;11.90;11.50;;;23.70;22.30;;;;;;5052275;28;20438;-48
2022/09/04 12:37:43;;;;;;;10.83;10.53;;;23.80;21.70;;;;;;5051303;28;20441;-45
2022/09/04 12:40:23;;;;;;;11.13;10.73;;;24.10;20.80;;;;;;5053102;28;20401;-43
2022/09/04 12:43:07;;;;;;;11.70;11.30;;;24.30;20.10;;;;;;5050525;28;20424;-49
2022/09/04 12:45:51;;;;;;;11.00;10.60;;;24.40;20.40;;;;;;5033509;28;20414;-46
2022/09/04 12:48:32;;;;;;;11.30;10.90;;;24.40;20.70;;;;;;5033413;28;20441;-45
2022/09/04 12:51:15;;;;;;;10.90;10.50;;;24.30;20.30;;;;;;5033084;28;20464;-48
2022/09/04 12:53:56;;;;;;;10.97;10.37;;;24.30;20.50;;;;;;5033564;28;20505;-50
2022/09/04 12:56:44;;;;;;;10.97;10.47;;;24.30;20.40;;;;;;5033155;28;20478;-52
2022/09/04 12:59:21;;;;;;;12.00;11.50;;;24.20;20.70;;;;;;5033322;28;20768;-47
2022/09/04 13:01:49;;;;;;;10.10;9.70;;;24.20;20.90;;;;;;5033079;28;20918;-50
2022/09/04 13:04:21;;;;;;;11.00;10.40;;;24.10;21.10;;;;;;5033579;28;20630;-40
2022/09/04 13:06:49;;;;;;;10.87;10.47;;;24.00;21.40;;;;;;5041747;28;20414;-43
2022/09/04 13:09:33;;;;;;;10.27;9.90;;;24.00;21.30;;;;;;5051544;28;20448;-40
2022/09/04 13:12:36;;;;;;;10.43;10.13;;;24.10;21.00;;;;;;5051537;28;20541;-47
2022/09/04 13:15:27;;;;;;;9.60;9.30;;;24.00;20.90;;;;;;5052232;28;20411;-44
2022/09/04 13:18:00;;;;;;;10.70;10.20;;;24.00;20.40;;;;;;5054708;28;20415;-41
2022/09/04 13:21:07;;;;;;;10.50;10.10;;;24.10;21.00;;;;;;5053553;28;20504;-44
2022/09/04 13:23:36;;;;;;;10.20;9.90;;;24.20;20.50;;;;;;5054471;28;20744;-44
2022/09/04 13:26:04;;;;;;;9.83;9.53;;;24.40;19.80;;;;;;5056145;28;20442;-47
2022/09/04 13:28:59;;;;;;;10.67;10.27;;;24.50;19.50;;;;;;5055693;28;20410;-45
2022/09/04 13:31:42;;;;;;;11.07;10.60;;;24.50;19.70;;;;;;5019041;28;20966;-43
2022/09/04 13:34:34;;;;;;;10.13;9.67;;;24.40;19.70;;;;;;5056137;28;20770;-46
2022/09/04 13:37:23;;;;;;;10.10;9.80;;;24.50;19.60;;;;;;5056269;28;20413;-44
2022/09/04 13:39:59;;;;;;;10.00;9.70;;;24.50;19.90;;;;;;5056597;28;20835;-44
2022/09/04 13:42:36;;;;;;;9.67;9.27;;;24.40;19.40;;;;;;5055932;28;20428;-43
2022/09/04 13:45:12;;;;;;;10.77;10.17;;;24.50;19.40;;;;;;5056366;28;20429;-47
2022/09/04 13:48:04;;;;;;;10.70;10.30;;;24.60;18.90;;;;;;5055513;28;20425;-45
2022/09/04 13:50:42;;;;;;;9.73;9.10;;;24.60;19.20;;;;;;5054724;28;20461;-47
2022/09/04 13:53:22;;;;;;;10.30;9.80;;;24.70;18.50;;;;;;5057019;28;20829;-49
2022/09/04 13:55:56;;;;;;;10.03;9.67;;;24.70;18.40;;;;;;5056394;28;20414;-48
2022/09/04 13:58:40;;;;;;;10.37;9.97;;;24.70;18.50;;;;;;5056176;28;20421;-43
2022/09/04 14:01:14;;;;;;;10.00;9.60;;;24.60;19.40;;;;;;5055232;28;20418;-45
2022/09/04 14:03:59;;;;;;;9.83;9.43;;;24.60;19.80;;;;;;5052982;28;20492;-44